Time;durP1;ratioP1;P1;durP2;ratioP2;P2;SDS_P1;SDS_P2;PMS_P1;PMS_P2;Temp;Humidity;BMP_temperature;BMP_pressure;BME280_temperature;BME280_humidity;BME280_pressure;Samples;Min_cycle;Max_cycle;Signal;HPM_P1;HPM_P2
2023/06/28 00:02:22;;;;;;;3.95;1.38;;;17.90;95.70;;;;;;4991947;28;20509;-51
2023/06/28 00:04:48;;;;;;;5.82;1.27;;;17.90;95.70;;;;;;4992246;28;20498;-54
2023/06/28 00:07:14;;;;;;;2.33;1.23;;;17.80;95.80;;;;;;4992424;28;20162;-54
2023/06/28 00:09:40;;;;;;;3.22;1.20;;;17.70;95.80;;;;;;4992233;28;20057;-55
2023/06/28 00:12:06;;;;;;;3.33;1.40;;;17.70;96.20;;;;;;4991782;28;20031;-55
2023/06/28 00:14:31;;;;;;;2.17;0.90;;;17.70;96.00;;;;;;4992062;28;20423;-54
2023/06/28 00:16:57;;;;;;;2.92;1.00;;;17.70;96.00;;;;;;4992198;28;20030;-50
2023/06/28 00:19:26;;;;;;;3.13;1.25;;;17.60;96.60;;;;;;4991250;28;20053;-55
2023/06/28 00:21:58;;;;;;;2.88;1.33;;;17.60;96.40;;;;;;4991357;28;20069;-54
2023/06/28 00:24:23;;;;;;;2.45;0.90;;;17.60;96.10;;;;;;4991987;28;20034;-55
2023/06/28 00:26:49;;;;;;;3.88;1.20;;;17.60;96.10;;;;;;4992369;28;20426;-55
2023/06/28 00:29:15;;;;;;;3.22;1.00;;;17.60;96.20;;;;;;4974333;28;20079;-56
2023/06/28 00:31:40;;;;;;;1.95;1.00;;;17.50;96.10;;;;;;4974350;28;20037;-54
2023/06/28 00:34:06;;;;;;;4.45;1.02;;;17.50;96.20;;;;;;4973833;28;20158;-53
2023/06/28 00:36:31;;;;;;;2.67;0.90;;;17.50;96.10;;;;;;4974266;28;20120;-55
2023/06/28 00:38:57;;;;;;;4.93;1.30;;;17.50;96.40;;;;;;4991857;28;20025;-53
2023/06/28 00:41:25;;;;;;;3.20;0.80;;;17.40;96.20;;;;;;4974143;28;20033;-55
2023/06/28 00:43:51;;;;;;;4.47;0.80;;;17.40;96.10;;;;;;4973556;28;20038;-54
2023/06/28 00:46:17;;;;;;;4.80;1.10;;;17.40;96.00;;;;;;4974100;28;20505;-56
2023/06/28 00:48:43;;;;;;;3.00;1.00;;;17.30;96.10;;;;;;4973699;28;20046;-56
2023/06/28 00:51:10;;;;;;;3.53;1.00;;;17.30;96.20;;;;;;4973976;28;20031;-55
2023/06/28 00:53:35;;;;;;;2.30;0.90;;;17.30;96.30;;;;;;4972632;28;20026;-52
2023/06/28 00:56:01;;;;;;;2.67;0.80;;;17.30;96.50;;;;;;4990576;28;20088;-56
2023/06/28 00:58:27;;;;;;;2.17;0.90;;;17.20;96.60;;;;;;4973017;28;20034;-55
2023/06/28 01:00:53;;;;;;;2.25;0.93;;;17.20;96.60;;;;;;4991226;28;20073;-54
2023/06/28 01:03:19;;;;;;;2.15;0.90;;;17.20;96.70;;;;;;4990968;28;20046;-54
2023/06/28 01:05:49;;;;;;;2.95;1.00;;;17.10;96.80;;;;;;4973802;28;20457;-53
2023/06/28 01:08:16;;;;;;;3.70;1.08;;;17.20;97.00;;;;;;4957560;28;20125;-55
2023/06/28 01:10:43;;;;;;;3.08;1.20;;;17.10;97.00;;;;;;4973500;28;20053;-52
2023/06/28 01:13:09;;;;;;;2.65;1.05;;;17.10;96.90;;;;;;4990542;28;20022;-52
2023/06/28 01:15:35;;;;;;;3.50;1.00;;;17.10;97.10;;;;;;4973651;28;20030;-52
2023/06/28 01:18:01;;;;;;;2.85;1.05;;;17.00;97.20;;;;;;4973589;28;20026;-55
2023/06/28 01:20:30;;;;;;;2.13;0.90;;;17.00;97.20;;;;;;4973519;28;20109;-54
2023/06/28 01:22:56;;;;;;;;;;;16.90;97.30;;;;;;4991170;28;20104;-53
2023/06/28 01:25:23;;;;;;;4.80;1.08;;;16.90;97.50;;;;;;4973457;28;19961;-52
2023/06/28 01:27:49;;;;;;;4.15;1.45;;;16.90;97.50;;;;;;4991055;28;20036;-55
2023/06/28 01:30:15;;;;;;;5.88;1.25;;;16.80;97.70;;;;;;4973676;28;20033;-56
2023/06/28 01:32:45;;;;;;;4.25;1.20;;;16.80;97.60;;;;;;4973354;28;20031;-55
2023/06/28 01:35:11;;;;;;;2.88;0.95;;;16.80;97.70;;;;;;4973461;28;20030;-56
2023/06/28 01:37:39;;;;;;;2.63;0.90;;;16.70;97.80;;;;;;4990776;28;20424;-55
2023/06/28 01:40:06;;;;;;;1.88;1.00;;;16.70;98.00;;;;;;4973413;28;20501;-54
2023/06/28 01:42:34;;;;;;;3.70;1.00;;;16.70;98.00;;;;;;4973031;28;20050;-55
2023/06/28 01:45:02;;;;;;;2.03;0.82;;;16.70;98.20;;;;;;4973399;28;20062;-56
2023/06/28 01:47:28;;;;;;;5.20;0.95;;;16.60;98.30;;;;;;4973210;28;20073;-53
2023/06/28 01:49:55;;;;;;;3.22;1.10;;;16.70;98.40;;;;;;4973173;28;20030;-50
2023/06/28 01:52:21;;;;;;;1.73;0.75;;;16.60;98.40;;;;;;4990606;28;20113;-52
2023/06/28 01:54:46;;;;;;;2.58;0.90;;;16.60;98.50;;;;;;4991018;28;20176;-52
2023/06/28 01:57:12;;;;;;;10.00;1.15;;;16.60;98.50;;;;;;4973643;28;20037;-55
2023/06/28 01:59:38;;;;;;;2.70;0.80;;;16.60;98.50;;;;;;4973735;28;20034;-51
2023/06/28 02:02:04;;;;;;;2.50;0.80;;;16.50;98.60;;;;;;4974415;28;20061;-54
2023/06/28 02:04:32;;;;;;;4.30;1.40;;;16.50;98.70;;;;;;4992628;28;20029;-52
2023/06/28 02:06:58;;;;;;;3.13;1.02;;;16.50;98.90;;;;;;4975197;28;20461;-53
2023/06/28 02:09:25;;;;;;;4.72;1.20;;;16.50;98.90;;;;;;4974886;28;20193;-54
2023/06/28 02:11:51;;;;;;;2.78;1.02;;;16.50;99.00;;;;;;4973850;28;20105;-54
2023/06/28 02:14:17;;;;;;;3.25;1.23;;;16.40;99.30;;;;;;4972755;28;20494;-55
2023/06/28 02:16:42;;;;;;;3.88;1.40;;;16.30;99.70;;;;;;4973118;28;20031;-54
2023/06/28 02:19:12;;;;;;;3.67;1.00;;;16.30;99.90;;;;;;4990149;28;20136;-52
2023/06/28 02:21:40;;;;;;;6.18;2.00;;;16.20;99.90;;;;;;4990227;28;20030;-54
2023/06/28 02:24:08;;;;;;;2.67;1.10;;;16.10;99.90;;;;;;4990116;28;20045;-55
2023/06/28 02:26:35;;;;;;;2.75;0.95;;;16.00;99.90;;;;;;4990453;28;20045;-55
2023/06/28 02:29:00;;;;;;;3.00;1.10;;;15.90;99.90;;;;;;4972588;28;20616;-54
2023/06/28 02:31:26;;;;;;;2.55;1.00;;;15.90;99.90;;;;;;4972965;28;20118;-56
2023/06/28 02:33:52;;;;;;;2.92;1.45;;;15.70;99.90;;;;;;4989941;28;20022;-54
2023/06/28 02:36:18;;;;;;;4.25;1.30;;;15.60;99.90;;;;;;4972979;28;20124;-55
2023/06/28 02:38:44;;;;;;;1.95;0.98;;;15.50;99.90;;;;;;4990104;28;20027;-56
2023/06/28 02:41:10;;;;;;;2.30;0.93;;;15.50;99.90;;;;;;4990936;28;20121;-56
2023/06/28 02:43:37;;;;;;;5.95;1.38;;;15.50;99.90;;;;;;4975700;28;20045;-52
2023/06/28 02:46:04;;;;;;;5.38;1.50;;;15.50;99.90;;;;;;4975938;28;20116;-55
2023/06/28 02:48:29;;;;;;;2.25;0.98;;;15.60;99.90;;;;;;4993216;28;20062;-55
2023/06/28 02:50:56;;;;;;;2.50;1.08;;;15.50;99.90;;;;;;4976036;28;20041;-55
2023/06/28 02:53:21;;;;;;;2.30;1.15;;;15.50;99.90;;;;;;4992922;28;20030;-56
2023/06/28 02:55:47;;;;;;;2.42;1.10;;;15.40;99.90;;;;;;4975909;28;20463;-55
2023/06/28 02:58:15;;;;;;;3.67;1.20;;;15.30;99.90;;;;;;4975816;28;20041;-52
2023/06/28 03:00:41;;;;;;;3.60;1.33;;;15.30;99.90;;;;;;4975984;28;20038;-53
2023/06/28 03:03:09;;;;;;;2.28;1.20;;;15.20;99.90;;;;;;4975237;28;20442;-56
2023/06/28 03:05:36;;;;;;;4.50;1.65;;;15.20;99.90;;;;;;4975772;28;20121;-55
2023/06/28 03:08:03;;;;;;;2.05;1.20;;;15.20;99.90;;;;;;4975678;28;20030;-54
2023/06/28 03:10:30;;;;;;;2.25;1.10;;;15.20;99.90;;;;;;4993598;28;20102;-54
2023/06/28 03:12:56;;;;;;;4.95;1.55;;;15.30;99.90;;;;;;4975303;28;20093;-52
2023/06/28 03:15:22;;;;;;;3.47;1.30;;;15.30;99.90;;;;;;4993425;28;20532;-53
2023/06/28 03:17:48;;;;;;;2.38;1.40;;;15.30;99.90;;;;;;4975440;28;20502;-55
2023/06/28 03:20:14;;;;;;;2.83;1.25;;;15.40;99.90;;;;;;4975393;28;20038;-56
2023/06/28 03:22:40;;;;;;;2.90;1.13;;;15.40;99.90;;;;;;4974925;28;20037;-53
2023/06/28 03:25:05;;;;;;;2.85;1.23;;;15.40;99.90;;;;;;4992911;28;20036;-53
2023/06/28 03:27:31;;;;;;;3.03;1.40;;;15.30;99.90;;;;;;4974734;28;20034;-55
2023/06/28 03:29:57;;;;;;;5.35;1.67;;;15.30;99.90;;;;;;4974823;28;20027;-53
2023/06/28 03:32:24;;;;;;;6.20;1.38;;;15.40;99.90;;;;;;4974107;28;20080;-54
2023/06/28 03:34:49;;;;;;;3.90;1.13;;;15.40;99.90;;;;;;4975048;28;20027;-52
2023/06/28 03:37:16;;;;;;;5.65;1.42;;;15.50;99.90;;;;;;4974991;28;20031;-55
2023/06/28 03:39:42;;;;;;;2.95;1.30;;;15.50;99.90;;;;;;4974515;28;20023;-54
2023/06/28 03:42:09;;;;;;;4.50;1.70;;;15.60;99.90;;;;;;4974143;28;20113;-52
2023/06/28 03:44:34;;;;;;;4.43;1.58;;;15.60;99.90;;;;;;4974554;28;20177;-55
2023/06/28 03:47:00;;;;;;;4.57;1.38;;;15.70;99.90;;;;;;4974205;28;20042;-55
2023/06/28 03:49:26;;;;;;;3.42;1.13;;;15.70;99.90;;;;;;4974226;28;20030;-54
2023/06/28 03:51:52;;;;;;;4.65;1.60;;;15.70;99.90;;;;;;4974099;28;20054;-56
2023/06/28 03:54:17;;;;;;;3.25;1.58;;;15.70;99.90;;;;;;4990793;28;20367;-56
2023/06/28 03:56:43;;;;;;;4.03;1.40;;;15.70;99.90;;;;;;4974538;28;20038;-53
2023/06/28 03:59:08;;;;;;;4.13;1.52;;;15.70;99.90;;;;;;4991998;28;20106;-56
2023/06/28 04:01:34;;;;;;;3.70;1.40;;;15.60;99.90;;;;;;4991520;28;20060;-54
2023/06/28 04:03:59;;;;;;;5.05;1.50;;;15.60;99.90;;;;;;4991432;28;20034;-55
2023/06/28 04:06:25;;;;;;;5.18;1.58;;;15.60;99.90;;;;;;4991783;28;20101;-55
2023/06/28 04:08:51;;;;;;;3.45;1.55;;;15.60;99.90;;;;;;4991682;28;20493;-56
2023/06/28 04:11:16;;;;;;;3.53;1.20;;;15.60;99.90;;;;;;4991630;28;20058;-51
2023/06/28 04:13:42;;;;;;;5.05;1.60;;;15.60;99.90;;;;;;4992039;28;20030;-53
2023/06/28 04:16:08;;;;;;;3.53;1.35;;;15.60;99.90;;;;;;4992024;28;20543;-56
2023/06/28 04:18:33;;;;;;;8.32;1.27;;;15.60;99.90;;;;;;4974457;28;20141;-54
2023/06/28 04:20:59;;;;;;;2.80;1.50;;;15.60;99.90;;;;;;4992202;28;20030;-55
2023/06/28 04:23:24;;;;;;;3.90;1.70;;;15.60;99.90;;;;;;4991538;28;20053;-54
2023/06/28 04:25:52;;;;;;;3.63;1.27;;;15.70;99.90;;;;;;4974384;28;20030;-53
2023/06/28 04:28:17;;;;;;;4.25;1.63;;;15.80;99.90;;;;;;4991833;28;20034;-52
2023/06/28 04:30:43;;;;;;;3.95;1.45;;;15.80;99.90;;;;;;4991809;28;20034;-54
2023/06/28 04:33:09;;;;;;;5.75;1.73;;;15.90;99.90;;;;;;4991032;28;20503;-53
2023/06/28 04:35:35;;;;;;;4.85;1.40;;;16.00;99.90;;;;;;4991132;28;20483;-52
2023/06/28 04:38:04;;;;;;;3.78;1.27;;;16.00;99.90;;;;;;4991593;28;20049;-52
2023/06/28 04:40:32;;;;;;;5.28;1.50;;;16.10;99.90;;;;;;4991619;28;20065;-54
2023/06/28 04:42:58;;;;;;;7.63;2.20;;;16.10;99.90;;;;;;4991353;28;20061;-55
2023/06/28 04:45:35;;;;;;;13.73;5.57;;;16.20;99.90;;;;;;4991202;28;20065;-52
2023/06/28 04:48:03;;;;;;;6.68;3.05;;;16.20;99.90;;;;;;4991524;28;20407;-51
2023/06/28 04:50:29;;;;;;;3.03;1.70;;;16.40;99.90;;;;;;4991586;28;20034;-50
2023/06/28 04:52:54;;;;;;;8.85;4.00;;;16.50;99.90;;;;;;4990978;28;20368;-54
2023/06/28 04:55:20;;;;;;;8.90;4.38;;;16.50;99.90;;;;;;4991273;28;20109;-55
2023/06/28 04:57:45;;;;;;;6.75;2.20;;;16.60;99.90;;;;;;4991265;28;20425;-54
2023/06/28 05:00:12;;;;;;;5.75;2.10;;;16.70;99.90;;;;;;4991716;28;20065;-53
2023/06/28 05:02:37;;;;;;;3.38;1.50;;;16.70;99.90;;;;;;4990882;28;20034;-54
2023/06/28 05:05:03;;;;;;;2.95;1.52;;;16.80;99.90;;;;;;4990451;28;20445;-51
2023/06/28 05:07:29;;;;;;;3.15;1.48;;;16.80;99.90;;;;;;4990747;28;20153;-53
2023/06/28 05:09:54;;;;;;;1.95;1.10;;;16.90;99.90;;;;;;4993189;28;20068;-51
2023/06/28 05:12:20;;;;;;;3.13;1.25;;;16.90;99.90;;;;;;4992681;28;20435;-54
2023/06/28 05:14:45;;;;;;;3.35;1.60;;;16.90;99.90;;;;;;4997356;28;20057;-55
2023/06/28 05:17:11;;;;;;;4.38;1.50;;;16.90;99.90;;;;;;5011507;28;20026;-54
2023/06/28 05:19:36;;;;;;;3.72;1.02;;;17.00;99.90;;;;;;5010416;28;20441;-53
2023/06/28 05:22:03;;;;;;;3.35;1.30;;;17.00;99.90;;;;;;5009584;28;20036;-55
2023/06/28 05:24:28;;;;;;;4.38;1.50;;;17.00;99.90;;;;;;5009562;28;20099;-51
2023/06/28 05:26:54;;;;;;;4.65;1.70;;;17.00;99.90;;;;;;5009937;28;20026;-51
2023/06/28 05:29:20;;;;;;;2.42;1.23;;;17.00;99.90;;;;;;4991642;28;20033;-51
2023/06/28 05:31:45;;;;;;;3.47;1.30;;;17.00;99.90;;;;;;5009497;28;20041;-55
2023/06/28 05:34:11;;;;;;;4.75;1.40;;;17.00;99.90;;;;;;4991503;28;20033;-55
2023/06/28 05:36:37;;;;;;;7.28;1.65;;;16.90;99.90;;;;;;5009943;28;20104;-54
2023/06/28 05:39:03;;;;;;;2.72;1.10;;;17.00;99.90;;;;;;5009549;28;20033;-55
2023/06/28 05:41:29;;;;;;;3.72;1.20;;;17.00;99.90;;;;;;5009332;28;20421;-53
2023/06/28 05:43:54;;;;;;;2.78;1.23;;;17.00;99.90;;;;;;5009254;28;20025;-53
2023/06/28 05:46:20;;;;;;;3.13;1.60;;;17.00;99.90;;;;;;5009407;28;20034;-53
2023/06/28 05:48:46;;;;;;;3.72;1.73;;;17.00;99.90;;;;;;5009154;28;20390;-51
2023/06/28 05:51:14;;;;;;;4.80;1.38;;;17.00;99.90;;;;;;5009417;28;20030;-53
2023/06/28 05:53:41;;;;;;;3.92;1.63;;;17.00;99.90;;;;;;5008781;28;20038;-54
2023/06/28 05:56:06;;;;;;;3.53;1.55;;;16.90;99.90;;;;;;5009598;28;20053;-52
2023/06/28 05:58:32;;;;;;;10.65;4.63;;;16.90;99.90;;;;;;5009313;28;20398;-53
2023/06/28 06:00:59;;;;;;;3.80;1.50;;;17.00;99.90;;;;;;5009913;28;20028;-54
2023/06/28 06:03:25;;;;;;;5.75;2.22;;;17.00;99.90;;;;;;5008819;28;20424;-55
2023/06/28 06:05:51;;;;;;;5.88;2.38;;;17.00;99.90;;;;;;5009182;28;20038;-51
2023/06/28 06:08:17;;;;;;;4.15;1.27;;;17.10;99.90;;;;;;5009110;28;20066;-54
2023/06/28 06:10:42;;;;;;;3.80;1.02;;;17.10;99.90;;;;;;5009109;28;20068;-54
2023/06/28 06:13:09;;;;;;;1.88;1.00;;;17.20;99.90;;;;;;5008492;28;20030;-54
2023/06/28 06:15:34;;;;;;;4.43;1.63;;;17.10;99.90;;;;;;5009343;28;20076;-54
2023/06/28 06:18:00;;;;;;;5.35;1.45;;;17.10;99.90;;;;;;5013163;28;20030;-51
2023/06/28 06:20:26;;;;;;;3.63;1.20;;;17.10;99.90;;;;;;5013324;28;20305;-53
2023/06/28 06:22:51;;;;;;;2.72;1.20;;;17.00;99.90;;;;;;5012386;28;20474;-50
2023/06/28 06:25:17;;;;;;;3.55;1.20;;;17.00;99.90;;;;;;5012956;28;20029;-51
2023/06/28 06:27:42;;;;;;;4.13;1.20;;;17.00;99.90;;;;;;5013220;28;20061;-53
2023/06/28 06:30:13;;;;;;;4.35;1.50;;;17.00;99.90;;;;;;4995656;28;20076;-52
2023/06/28 06:32:39;;;;;;;2.63;1.17;;;16.90;99.90;;;;;;5012784;28;20057;-53
2023/06/28 06:35:06;;;;;;;7.65;1.52;;;16.90;99.90;;;;;;5012782;28;20037;-51
2023/06/28 06:37:32;;;;;;;5.15;1.30;;;16.90;99.90;;;;;;5012479;28;20068;-50
2023/06/28 06:39:58;;;;;;;4.93;2.25;;;16.90;99.90;;;;;;5012315;28;20058;-51
2023/06/28 06:42:23;;;;;;;7.43;2.92;;;16.90;99.90;;;;;;5011973;28;20076;-51
2023/06/28 06:44:50;;;;;;;7.50;2.63;;;17.00;99.90;;;;;;4984193;28;20018;-52
2023/06/28 06:47:16;;;;;;;3.60;1.20;;;17.00;99.90;;;;;;4993032;28;20030;-51
2023/06/28 06:49:41;;;;;;;6.00;1.75;;;17.00;99.90;;;;;;4992603;28;20030;-51
2023/06/28 06:52:07;;;;;;;7.20;2.90;;;17.00;99.90;;;;;;4992442;28;20018;-51
2023/06/28 06:54:32;;;;;;;4.40;1.70;;;17.10;99.90;;;;;;4992510;28;20034;-49
2023/06/28 06:56:59;;;;;;;3.28;1.67;;;17.00;99.90;;;;;;5007820;28;20026;-54
2023/06/28 06:59:26;;;;;;;5.00;1.50;;;17.00;99.90;;;;;;4992664;28;20444;-49
2023/06/28 07:01:52;;;;;;;3.22;1.52;;;17.00;99.90;;;;;;4992666;28;20471;-52
2023/06/28 07:04:18;;;;;;;6.82;2.13;;;16.90;99.90;;;;;;4992570;28;20038;-51
2023/06/28 07:06:47;;;;;;;5.93;1.67;;;16.90;99.90;;;;;;4993333;28;20045;-53
2023/06/28 07:09:17;;;;;;;4.50;1.65;;;16.90;99.90;;;;;;4993070;28;20426;-49
2023/06/28 07:11:43;;;;;;;5.30;1.70;;;16.80;99.90;;;;;;4993250;28;20386;-52
2023/06/28 07:14:09;;;;;;;6.95;1.80;;;16.90;99.90;;;;;;5009849;28;20026;-48
2023/06/28 07:16:35;;;;;;;4.90;1.77;;;16.90;99.90;;;;;;5012726;28;20022;-51
2023/06/28 07:19:02;;;;;;;5.72;1.90;;;17.00;99.90;;;;;;5012266;28;20132;-54
2023/06/28 07:21:28;;;;;;;3.40;1.50;;;17.00;99.90;;;;;;5012140;28;20049;-50
2023/06/28 07:23:54;;;;;;;5.70;2.10;;;17.00;99.90;;;;;;5011773;28;20034;-54
2023/06/28 07:26:20;;;;;;;5.78;1.60;;;17.00;99.90;;;;;;5012299;28;20059;-55
2023/06/28 07:28:46;;;;;;;4.32;1.63;;;17.10;99.90;;;;;;5011673;28;20037;-53
2023/06/28 07:31:12;;;;;;;6.57;1.52;;;17.10;99.90;;;;;;5012150;28;20029;-57
2023/06/28 07:33:40;;;;;;;3.70;1.60;;;17.10;99.90;;;;;;5011593;28;20151;-54
2023/06/28 07:36:06;;;;;;;3.60;1.50;;;17.10;99.90;;;;;;5011971;28;20033;-51
2023/06/28 07:38:32;;;;;;;5.05;1.58;;;17.10;99.90;;;;;;5011958;28;20146;-54
2023/06/28 07:40:57;;;;;;;4.22;1.50;;;17.10;99.90;;;;;;5011894;28;20462;-50
2023/06/28 07:43:23;;;;;;;3.60;1.55;;;17.10;99.90;;;;;;4998455;28;20080;-51
2023/06/28 07:45:49;;;;;;;7.03;2.88;;;17.10;99.90;;;;;;4992531;28;20102;-51
2023/06/28 07:48:14;;;;;;;3.47;1.30;;;17.10;99.90;;;;;;4992065;28;20030;-51
2023/06/28 07:50:41;;;;;;;4.53;1.40;;;17.10;99.90;;;;;;4992556;28;20050;-55
2023/06/28 07:53:06;;;;;;;3.55;1.27;;;17.10;99.90;;;;;;4992801;28;20026;-51
2023/06/28 07:55:32;;;;;;;3.58;1.58;;;17.10;99.90;;;;;;5009041;28;20036;-51
2023/06/28 07:57:58;;;;;;;3.72;1.52;;;17.10;99.90;;;;;;5011025;28;20386;-53
2023/06/28 08:00:25;;;;;;;9.57;3.75;;;17.10;99.90;;;;;;5010317;28;20068;-50
2023/06/28 08:02:51;;;;;;;5.50;2.67;;;17.10;99.90;;;;;;5010182;28;20040;-49
2023/06/28 08:05:16;;;;;;;4.82;2.10;;;17.20;99.90;;;;;;5009910;28;20402;-50
2023/06/28 08:07:42;;;;;;;2.78;1.33;;;17.30;99.90;;;;;;4993927;28;20461;-49
2023/06/28 08:10:08;;;;;;;2.70;1.00;;;17.40;99.90;;;;;;5011474;28;20275;-48
2023/06/28 08:12:34;;;;;;;4.57;1.42;;;17.40;99.90;;;;;;5010617;28;20466;-50
2023/06/28 08:14:59;;;;;;;3.17;1.15;;;17.40;99.90;;;;;;5011630;28;20022;-49
2023/06/28 08:17:26;;;;;;;4.47;1.40;;;17.50;99.90;;;;;;5011379;28;20446;-51
2023/06/28 08:19:54;;;;;;;1.98;1.00;;;17.50;99.90;;;;;;5001869;28;20518;-50
2023/06/28 08:22:19;;;;;;;4.10;1.40;;;17.60;99.90;;;;;;4988944;28;20537;-50
2023/06/28 08:24:45;;;;;;;4.63;1.50;;;17.50;99.90;;;;;;4991602;28;20038;-49
2023/06/28 08:27:11;;;;;;;3.83;1.10;;;17.50;99.90;;;;;;4988750;28;20084;-49
2023/06/28 08:29:36;;;;;;;2.70;1.00;;;17.50;99.90;;;;;;4988195;28;20022;-49
2023/06/28 08:32:02;;;;;;;4.40;1.65;;;17.50;99.90;;;;;;4988614;28;20434;-49
2023/06/28 08:34:28;;;;;;;3.85;1.27;;;17.50;99.90;;;;;;4988594;28;20058;-50
2023/06/28 08:36:53;;;;;;;5.50;1.40;;;17.60;99.90;;;;;;4988449;28;20038;-49
2023/06/28 08:39:19;;;;;;;4.40;1.45;;;17.50;99.90;;;;;;4987604;28;20061;-49
2023/06/28 08:41:45;;;;;;;3.28;1.10;;;17.60;99.90;;;;;;4987602;28;20030;-50
2023/06/28 08:44:12;;;;;;;3.05;1.40;;;17.60;99.90;;;;;;4988438;28;20428;-49
2023/06/28 08:46:40;;;;;;;5.03;1.98;;;17.50;99.90;;;;;;4972707;28;20034;-50
2023/06/28 08:49:06;;;;;;;3.28;1.25;;;17.50;99.90;;;;;;4987554;28;20030;-49
2023/06/28 08:51:33;;;;;;;3.53;1.17;;;17.50;99.90;;;;;;4987614;28;20031;-49
2023/06/28 08:53:59;;;;;;;7.53;1.60;;;17.60;99.90;;;;;;4987859;28;20038;-49
2023/06/28 08:56:27;;;;;;;1.70;0.98;;;17.60;99.90;;;;;;4987989;28;20033;-50
2023/06/28 08:58:54;;;;;;;3.17;1.20;;;17.60;99.90;;;;;;4987710;28;20061;-50
2023/06/28 09:01:22;;;;;;;4.25;1.38;;;17.60;99.90;;;;;;4987174;28;20038;-49
2023/06/28 09:03:48;;;;;;;5.28;1.20;;;17.70;99.90;;;;;;4998429;28;20045;-52
2023/06/28 09:06:15;;;;;;;4.47;1.75;;;17.70;99.90;;;;;;4992533;28;20129;-52
2023/06/28 09:08:42;;;;;;;4.88;1.50;;;17.70;99.90;;;;;;5009853;28;20038;-48
2023/06/28 09:11:09;;;;;;;4.30;1.60;;;17.70;99.90;;;;;;5010784;28;20145;-48
2023/06/28 09:13:34;;;;;;;6.10;3.10;;;17.70;99.90;;;;;;5009608;28;20467;-51
2023/06/28 09:16:01;;;;;;;8.70;2.67;;;17.70;99.90;;;;;;5009920;28;20108;-52
2023/06/28 09:18:26;;;;;;;6.03;2.80;;;17.70;99.90;;;;;;5009595;28;20061;-52
2023/06/28 09:20:54;;;;;;;8.77;2.50;;;17.80;99.90;;;;;;5010259;28;20030;-51
2023/06/28 09:23:26;;;;;;;7.55;3.38;;;17.80;99.90;;;;;;5009709;28;20079;-51
2023/06/28 09:25:53;;;;;;;12.02;4.82;;;17.90;99.90;;;;;;5010072;28;20124;-50
2023/06/28 09:28:19;;;;;;;5.85;1.60;;;18.00;99.90;;;;;;5008960;28;20080;-51
2023/06/28 09:30:52;;;;;;;5.75;1.85;;;18.00;99.90;;;;;;5009679;28;20077;-51
2023/06/28 09:33:19;;;;;;;4.22;1.48;;;18.00;99.90;;;;;;5007873;28;20091;-53
2023/06/28 09:35:45;;;;;;;8.05;2.30;;;18.10;99.90;;;;;;5009197;28;20025;-51
2023/06/28 09:38:10;;;;;;;4.28;1.30;;;18.20;99.90;;;;;;5009626;28;20107;-51
2023/06/28 09:40:36;;;;;;;6.88;2.28;;;18.20;99.90;;;;;;5010150;28;20038;-52
2023/06/28 09:43:03;;;;;;;9.60;2.45;;;18.20;99.90;;;;;;5009151;28;20034;-53
2023/06/28 09:45:31;;;;;;;7.43;2.97;;;18.30;99.90;;;;;;5011323;28;20039;-51
2023/06/28 09:48:01;;;;;;;4.63;1.63;;;18.40;99.90;;;;;;5011073;28;20569;-53
2023/06/28 09:50:46;;;;;;;5.47;1.63;;;18.50;99.90;;;;;;5011397;28;20030;-52
2023/06/28 09:53:16;;;;;;;4.72;1.98;;;18.50;99.90;;;;;;5010474;28;20117;-54
2023/06/28 09:55:44;;;;;;;5.55;2.53;;;18.50;99.80;;;;;;5011424;28;20021;-54
2023/06/28 09:58:11;;;;;;;3.70;1.63;;;18.60;99.90;;;;;;5011032;28;20038;-53
2023/06/28 10:00:42;;;;;;;6.28;1.58;;;18.50;99.60;;;;;;5010918;28;20062;-55
2023/06/28 10:03:12;;;;;;;5.72;1.55;;;18.50;99.60;;;;;;5010393;28;20045;-51
2023/06/28 10:05:39;;;;;;;5.25;2.55;;;18.50;99.70;;;;;;5010761;28;20042;-51
2023/06/28 10:08:14;;;;;;;4.32;1.73;;;18.50;99.90;;;;;;5010847;28;20475;-51
2023/06/28 10:10:40;;;;;;;5.05;1.90;;;18.50;99.80;;;;;;5010941;28;20037;-51
2023/06/28 10:13:09;;;;;;;8.73;2.03;;;18.50;99.90;;;;;;5010598;28;20156;-50
2023/06/28 10:16:17;;;;;;;6.35;1.85;;;18.50;99.80;;;;;;5011372;28;20025;-50
2023/06/28 10:18:43;;;;;;;5.18;1.67;;;18.50;99.90;;;;;;5008974;28;20046;-52
2023/06/28 10:21:09;;;;;;;3.63;1.40;;;18.60;99.90;;;;;;5011398;28;20037;-53
2023/06/28 10:23:35;;;;;;;7.20;1.65;;;18.60;99.90;;;;;;5010640;28;20058;-50
2023/06/28 10:26:05;;;;;;;4.00;1.58;;;18.60;99.80;;;;;;5012416;28;20117;-54
2023/06/28 10:28:35;;;;;;;5.32;2.20;;;18.60;99.90;;;;;;5012296;28;20026;-54
2023/06/28 10:31:04;;;;;;;6.80;1.90;;;18.60;99.90;;;;;;5012681;28;20029;-52
2023/06/28 10:33:36;;;;;;;4.55;1.95;;;18.70;99.80;;;;;;5011948;28;20097;-51
2023/06/28 10:36:03;;;;;;;5.20;1.65;;;18.60;99.60;;;;;;5010991;28;20045;-51
2023/06/28 10:38:36;;;;;;;3.90;1.75;;;18.60;99.90;;;;;;5010572;28;20042;-50
2023/06/28 10:41:03;;;;;;;4.28;1.40;;;18.60;99.90;;;;;;5010607;28;20034;-51
2023/06/28 10:43:29;;;;;;;4.38;1.70;;;18.70;99.60;;;;;;5009979;28;20038;-52
2023/06/28 10:45:55;;;;;;;4.65;1.60;;;18.80;99.80;;;;;;5010543;28;20544;-53
2023/06/28 10:48:23;;;;;;;3.72;1.88;;;18.90;99.80;;;;;;5010454;28;20034;-55
2023/06/28 10:50:50;;;;;;;4.90;1.35;;;18.90;99.70;;;;;;5010430;28;20112;-53
2023/06/28 10:53:23;;;;;;;7.57;3.40;;;19.00;99.60;;;;;;5009897;28;20052;-54
2023/06/28 10:56:12;;;;;;;4.53;2.30;;;19.10;99.50;;;;;;5010421;28;20437;-51
2023/06/28 10:58:39;;;;;;;7.43;2.80;;;19.10;99.60;;;;;;5010389;28;20030;-54
2023/06/28 11:01:07;;;;;;;5.65;2.08;;;19.20;99.80;;;;;;5010311;28;20116;-52
2023/06/28 11:03:43;;;;;;;4.88;1.73;;;19.20;99.30;;;;;;4995121;28;20116;-53
2023/06/28 11:06:13;;;;;;;4.70;1.88;;;19.30;99.50;;;;;;5014054;28;20061;-52
2023/06/28 11:08:44;;;;;;;6.25;2.00;;;19.40;99.30;;;;;;5013723;28;20038;-53
2023/06/28 11:11:34;;;;;;;4.18;1.83;;;19.50;99.10;;;;;;5013904;28;20034;-54
2023/06/28 11:14:17;;;;;;;6.85;2.30;;;19.50;99.10;;;;;;5002264;28;20045;-54
2023/06/28 11:16:43;;;;;;;8.32;2.53;;;19.60;99.10;;;;;;5013789;28;20398;-50
2023/06/28 11:19:18;;;;;;;6.00;2.70;;;19.60;99.00;;;;;;5013696;28;20029;-56
2023/06/28 11:21:49;;;;;;;7.10;2.42;;;19.70;99.00;;;;;;4996086;28;20038;-55
2023/06/28 11:24:44;;;;;;;3.88;1.60;;;19.70;98.90;;;;;;5013548;28;20037;-54
2023/06/28 11:27:15;;;;;;;6.97;2.63;;;19.70;98.70;;;;;;5013227;28;20116;-50
2023/06/28 11:30:01;;;;;;;6.15;2.03;;;19.70;98.90;;;;;;5013393;28;20615;-54
2023/06/28 11:32:32;;;;;;;7.15;2.50;;;19.80;98.20;;;;;;5013030;28;20038;-54
2023/06/28 11:34:59;;;;;;;7.88;2.17;;;19.70;98.60;;;;;;5013326;28;20042;-50
2023/06/28 11:37:26;;;;;;;3.63;1.65;;;19.70;98.20;;;;;;5013339;28;20112;-53
2023/06/28 11:39:52;;;;;;;7.50;2.55;;;19.70;98.40;;;;;;5013252;28;20430;-52
2023/06/28 11:42:19;;;;;;;5.38;1.98;;;19.70;98.70;;;;;;4995118;28;20036;-53
2023/06/28 11:44:46;;;;;;;8.05;2.35;;;19.80;98.10;;;;;;5013234;28;20038;-52
2023/06/28 11:47:12;;;;;;;6.13;1.88;;;19.80;97.60;;;;;;5013224;28;20041;-55
2023/06/28 11:49:37;;;;;;;3.75;1.70;;;19.80;98.10;;;;;;5012958;28;20026;-50
2023/06/28 11:52:04;;;;;;;5.80;2.00;;;19.90;97.70;;;;;;5012632;28;20517;-55
2023/06/28 11:54:33;;;;;;;7.50;2.13;;;20.10;98.00;;;;;;5013008;28;20030;-53
2023/06/28 11:57:00;;;;;;;4.75;1.95;;;20.20;97.80;;;;;;5013027;28;20037;-54
2023/06/28 11:59:26;;;;;;;6.07;1.63;;;20.20;97.50;;;;;;5012942;28;20030;-53
2023/06/28 12:02:05;;;;;;;5.10;1.73;;;20.30;97.60;;;;;;5012983;28;20053;-53
2023/06/28 12:04:31;;;;;;;9.25;2.08;;;20.40;97.20;;;;;;5012828;28;20030;-54
2023/06/28 12:07:07;;;;;;;4.53;2.00;;;20.40;97.20;;;;;;5012640;28;20033;-54
2023/06/28 12:09:36;;;;;;;6.32;2.03;;;20.40;97.20;;;;;;5012837;28;20133;-49
2023/06/28 12:12:07;;;;;;;6.13;1.70;;;20.40;97.30;;;;;;4994784;28;20030;-53
2023/06/28 12:14:40;;;;;;;3.22;1.65;;;20.30;97.40;;;;;;5011932;28;20287;-52
2023/06/28 12:17:06;;;;;;;5.45;2.00;;;20.50;97.50;;;;;;5012744;28;20097;-53
2023/06/28 12:19:33;;;;;;;4.68;1.98;;;20.60;97.10;;;;;;5012610;28;20084;-51
2023/06/28 12:22:03;;;;;;;9.52;2.30;;;20.60;96.80;;;;;;5012448;28;20040;-52
2023/06/28 12:24:37;;;;;;;3.50;1.80;;;20.60;96.80;;;;;;5012902;28;20482;-50
2023/06/28 12:27:07;;;;;;;7.20;2.15;;;20.50;96.90;;;;;;5012749;28;20499;-51
2023/06/28 12:29:35;;;;;;;4.43;1.88;;;20.60;97.00;;;;;;5012524;28;20056;-53
2023/06/28 12:32:04;;;;;;;7.35;2.10;;;20.70;96.70;;;;;;5011897;28;20034;-51
2023/06/28 12:34:34;;;;;;;6.55;2.20;;;20.60;97.00;;;;;;5012304;28;20076;-54
2023/06/28 12:37:05;;;;;;;6.60;2.63;;;20.70;97.00;;;;;;5012307;28;20037;-53
2023/06/28 12:39:34;;;;;;;9.40;2.45;;;20.80;97.00;;;;;;5012218;28;20120;-54
2023/06/28 12:42:01;;;;;;;;;;;20.80;96.50;;;;;;5012378;28;20539;-53
2023/06/28 12:44:28;;;;;;;7.07;2.30;;;21.00;96.80;;;;;;5012029;28;19916;-54
2023/06/28 12:46:53;;;;;;;8.55;2.38;;;21.00;96.50;;;;;;5012174;28;20080;-55
2023/06/28 12:49:19;;;;;;;4.63;2.50;;;21.10;96.20;;;;;;5011956;28;20120;-50